sensor_id;sensor_type;location;lat;lon;timestamp;P1;durP1;ratioP1;P2;durP2;ratioP2
4603;SDS011;2314;48.272;11.562;2023-07-28T10:36:15;2266.67;;;999.90;;
4603;SDS011;2314;48.272;11.562;2023-07-28T10:38:59;2266.67;;;999.90;;
4603;SDS011;2314;48.272;11.562;2023-07-28T10:41:28;11.35;;;4.72;;
4603;SDS011;2314;48.272;11.562;2023-07-28T10:43:55;9.70;;;3.90;;
4603;SDS011;2314;48.272;11.562;2023-07-28T10:46:23;80.53;;;8.45;;
4603;SDS011;2314;48.272;11.562;2023-07-28T10:48:50;40.57;;;5.90;;
4603;SDS011;2314;48.272;11.562;2023-07-28T10:51:22;12.17;;;5.40;;
4603;SDS011;2314;48.272;11.562;2023-07-28T10:53:50;12.63;;;4.63;;
4603;SDS011;2314;48.272;11.562;2023-07-28T10:56:18;31.83;;;5.73;;
4603;SDS011;2314;48.272;11.562;2023-07-28T10:58:46;25.03;;;4.30;;
4603;SDS011;2314;48.272;11.562;2023-07-28T11:01:14;13.33;;;4.13;;
4603;SDS011;2314;48.272;11.562;2023-07-28T11:03:41;17.83;;;4.03;;
4603;SDS011;2314;48.272;11.562;2023-07-28T11:06:09;13.43;;;4.80;;
4603;SDS011;2314;48.272;11.562;2023-07-28T11:08:37;7.90;;;3.20;;
4603;SDS011;2314;48.272;11.562;2023-07-28T11:11:04;16.00;;;3.20;;
4603;SDS011;2314;48.272;11.562;2023-07-28T11:13:32;14.63;;;3.40;;
4603;SDS011;2314;48.272;11.562;2023-07-28T11:16:00;17.30;;;3.40;;
4603;SDS011;2314;48.272;11.562;2023-07-28T11:18:27;11.93;;;3.20;;
4603;SDS011;2314;48.272;11.562;2023-07-28T11:20:55;5.43;;;2.70;;
4603;SDS011;2314;48.272;11.562;2023-07-28T11:23:22;10.30;;;2.90;;
4603;SDS011;2314;48.272;11.562;2023-07-28T11:25:50;8.63;;;3.30;;
4603;SDS011;2314;48.272;11.562;2023-07-28T11:28:19;8.17;;;2.40;;
4603;SDS011;2314;48.272;11.562;2023-07-28T11:30:46;6.33;;;2.57;;
4603;SDS011;2314;48.272;11.562;2023-07-28T11:33:13;13.53;;;3.77;;
4603;SDS011;2314;48.272;11.562;2023-07-28T11:35:40;9.73;;;3.00;;
4603;SDS011;2314;48.272;11.562;2023-07-28T11:38:11;8.40;;;2.70;;
4603;SDS011;2314;48.272;11.562;2023-07-28T11:40:39;5.53;;;2.93;;
4603;SDS011;2314;48.272;11.562;2023-07-28T11:43:08;6.87;;;2.50;;
4603;SDS011;2314;48.272;11.562;2023-07-28T11:45:36;8.83;;;2.83;;
4603;SDS011;2314;48.272;11.562;2023-07-28T11:48:03;9.40;;;2.80;;
4603;SDS011;2314;48.272;11.562;2023-07-28T11:50:34;8.70;;;3.23;;
4603;SDS011;2314;48.272;11.562;2023-07-28T11:53:03;5.07;;;2.47;;
4603;SDS011;2314;48.272;11.562;2023-07-28T11:55:32;10.27;;;2.90;;
4603;SDS011;2314;48.272;11.562;2023-07-28T11:58:00;5.50;;;2.43;;
4603;SDS011;2314;48.272;11.562;2023-07-28T12:00:31;16.83;;;3.40;;
4603;SDS011;2314;48.272;11.562;2023-07-28T12:03:00;4.53;;;2.60;;
4603;SDS011;2314;48.272;11.562;2023-07-28T12:05:30;4.87;;;2.70;;
4603;SDS011;2314;48.272;11.562;2023-07-28T12:07:58;4.00;;;2.17;;
4603;SDS011;2314;48.272;11.562;2023-07-28T12:10:25;8.90;;;3.00;;
4603;SDS011;2314;48.272;11.562;2023-07-28T12:12:52;4.43;;;1.90;;
4603;SDS011;2314;48.272;11.562;2023-07-28T12:15:20;3.93;;;2.53;;
4603;SDS011;2314;48.272;11.562;2023-07-28T12:18:12;10.33;;;3.00;;
4603;SDS011;2314;48.272;11.562;2023-07-28T12:20:42;6.00;;;2.97;;
4603;SDS011;2314;48.272;11.562;2023-07-28T12:23:11;5.70;;;2.40;;
4603;SDS011;2314;48.272;11.562;2023-07-28T12:25:39;5.97;;;2.87;;
4603;SDS011;2314;48.272;11.562;2023-07-28T12:28:06;3.43;;;2.10;;
4603;SDS011;2314;48.272;11.562;2023-07-28T12:30:34;4.40;;;2.43;;
4603;SDS011;2314;48.272;11.562;2023-07-28T12:33:02;6.10;;;2.37;;
4603;SDS011;2314;48.272;11.562;2023-07-28T12:35:30;3.87;;;2.23;;
4603;SDS011;2314;48.272;11.562;2023-07-28T12:37:59;5.00;;;2.57;;
4603;SDS011;2314;48.272;11.562;2023-07-28T12:40:29;4.63;;;1.77;;
4603;SDS011;2314;48.272;11.562;2023-07-28T12:42:57;4.27;;;2.20;;
4603;SDS011;2314;48.272;11.562;2023-07-28T12:45:26;5.17;;;2.30;;
4603;SDS011;2314;48.272;11.562;2023-07-28T12:47:53;6.70;;;2.67;;
4603;SDS011;2314;48.272;11.562;2023-07-28T12:50:21;6.23;;;1.97;;
4603;SDS011;2314;48.272;11.562;2023-07-28T12:52:50;5.63;;;2.60;;
4603;SDS011;2314;48.272;11.562;2023-07-28T12:55:17;7.23;;;2.53;;
4603;SDS011;2314;48.272;11.562;2023-07-28T12:57:45;5.30;;;2.17;;
4603;SDS011;2314;48.272;11.562;2023-07-28T13:00:14;8.50;;;2.47;;
4603;SDS011;2314;48.272;11.562;2023-07-28T13:02:42;3.93;;;2.63;;
4603;SDS011;2314;48.272;11.562;2023-07-28T13:05:10;4.40;;;2.33;;
4603;SDS011;2314;48.272;11.562;2023-07-28T13:07:39;4.20;;;2.63;;
4603;SDS011;2314;48.272;11.562;2023-07-28T13:10:09;3.17;;;1.60;;
4603;SDS011;2314;48.272;11.562;2023-07-28T13:12:37;5.20;;;2.50;;
4603;SDS011;2314;48.272;11.562;2023-07-28T13:15:05;9.63;;;2.67;;
4603;SDS011;2314;48.272;11.562;2023-07-28T13:17:33;10.83;;;3.27;;
4603;SDS011;2314;48.272;11.562;2023-07-28T13:20:00;11.50;;;2.50;;
4603;SDS011;2314;48.272;11.562;2023-07-28T13:22:27;6.93;;;2.97;;
4603;SDS011;2314;48.272;11.562;2023-07-28T13:24:54;3.60;;;2.10;;
4603;SDS011;2314;48.272;11.562;2023-07-28T13:27:23;3.80;;;2.23;;
4603;SDS011;2314;48.272;11.562;2023-07-28T13:29:50;5.37;;;2.37;;
4603;SDS011;2314;48.272;11.562;2023-07-28T13:32:17;5.70;;;2.60;;
4603;SDS011;2314;48.272;11.562;2023-07-28T13:34:51;6.30;;;2.43;;
4603;SDS011;2314;48.272;11.562;2023-07-28T13:37:18;12.93;;;2.77;;
4603;SDS011;2314;48.272;11.562;2023-07-28T13:39:46;4.57;;;2.17;;
4603;SDS011;2314;48.272;11.562;2023-07-28T13:42:13;7.90;;;2.30;;
4603;SDS011;2314;48.272;11.562;2023-07-28T13:44:42;4.83;;;2.57;;
4603;SDS011;2314;48.272;11.562;2023-07-28T13:47:09;7.13;;;2.70;;
4603;SDS011;2314;48.272;11.562;2023-07-28T13:49:36;6.30;;;2.73;;
4603;SDS011;2314;48.272;11.562;2023-07-28T13:52:04;3.33;;;2.20;;
4603;SDS011;2314;48.272;11.562;2023-07-28T13:54:32;7.40;;;2.50;;
4603;SDS011;2314;48.272;11.562;2023-07-28T13:56:59;6.30;;;2.43;;
4603;SDS011;2314;48.272;11.562;2023-07-28T13:59:26;12.27;;;2.47;;
4603;SDS011;2314;48.272;11.562;2023-07-28T14:01:54;4.70;;;2.50;;
4603;SDS011;2314;48.272;11.562;2023-07-28T14:04:22;5.17;;;2.80;;
4603;SDS011;2314;48.272;11.562;2023-07-28T14:06:49;3.67;;;2.33;;
4603;SDS011;2314;48.272;11.562;2023-07-28T14:09:16;4.73;;;2.50;;
4603;SDS011;2314;48.272;11.562;2023-07-28T14:11:44;6.27;;;2.87;;
4603;SDS011;2314;48.272;11.562;2023-07-28T14:14:11;4.77;;;2.27;;
4603;SDS011;2314;48.272;11.562;2023-07-28T14:16:37;4.17;;;2.43;;
4603;SDS011;2314;48.272;11.562;2023-07-28T14:19:06;5.00;;;2.67;;
4603;SDS011;2314;48.272;11.562;2023-07-28T14:21:33;3.40;;;2.23;;
4603;SDS011;2314;48.272;11.562;2023-07-28T14:24:03;33.07;;;4.23;;
4603;SDS011;2314;48.272;11.562;2023-07-28T14:26:30;6.33;;;2.70;;
4603;SDS011;2314;48.272;11.562;2023-07-28T14:28:57;10.00;;;2.70;;
4603;SDS011;2314;48.272;11.562;2023-07-28T14:31:24;4.50;;;2.10;;
4603;SDS011;2314;48.272;11.562;2023-07-28T14:33:52;5.13;;;2.47;;
4603;SDS011;2314;48.272;11.562;2023-07-28T14:36:20;4.30;;;2.03;;
4603;SDS011;2314;48.272;11.562;2023-07-28T14:38:47;7.13;;;2.50;;
4603;SDS011;2314;48.272;11.562;2023-07-28T14:41:15;5.33;;;2.40;;
4603;SDS011;2314;48.272;11.562;2023-07-28T14:43:42;8.83;;;2.23;;
4603;SDS011;2314;48.272;11.562;2023-07-28T14:46:10;5.80;;;2.73;;
4603;SDS011;2314;48.272;11.562;2023-07-28T14:48:37;6.03;;;2.50;;
4603;SDS011;2314;48.272;11.562;2023-07-28T14:51:05;4.30;;;2.23;;
4603;SDS011;2314;48.272;11.562;2023-07-28T14:53:34;4.20;;;2.40;;
4603;SDS011;2314;48.272;11.562;2023-07-28T14:56:05;3.30;;;1.90;;
4603;SDS011;2314;48.272;11.562;2023-07-28T14:58:33;3.90;;;2.50;;
4603;SDS011;2314;48.272;11.562;2023-07-28T15:01:01;4.40;;;2.23;;
4603;SDS011;2314;48.272;11.562;2023-07-28T15:03:30;6.80;;;2.63;;
4603;SDS011;2314;48.272;11.562;2023-07-28T15:05:57;11.43;;;2.90;;
4603;SDS011;2314;48.272;11.562;2023-07-28T15:08:25;5.73;;;2.77;;
4603;SDS011;2314;48.272;11.562;2023-07-28T15:10:55;6.97;;;2.93;;
4603;SDS011;2314;48.272;11.562;2023-07-28T15:13:23;5.83;;;2.60;;
4603;SDS011;2314;48.272;11.562;2023-07-28T15:15:50;4.80;;;2.40;;
4603;SDS011;2314;48.272;11.562;2023-07-28T15:18:17;4.20;;;2.13;;
4603;SDS011;2314;48.272;11.562;2023-07-28T15:20:45;11.80;;;3.20;;
4603;SDS011;2314;48.272;11.562;2023-07-28T15:23:12;11.20;;;2.20;;
4603;SDS011;2314;48.272;11.562;2023-07-28T15:25:39;4.00;;;2.30;;
4603;SDS011;2314;48.272;11.562;2023-07-28T15:30:38;6.57;;;2.60;;
4603;SDS011;2314;48.272;11.562;2023-07-28T15:33:05;4.40;;;2.57;;
4603;SDS011;2314;48.272;11.562;2023-07-28T15:35:32;4.73;;;2.67;;
4603;SDS011;2314;48.272;11.562;2023-07-28T15:38:00;4.83;;;2.40;;
4603;SDS011;2314;48.272;11.562;2023-07-28T15:40:28;6.23;;;3.07;;
4603;SDS011;2314;48.272;11.562;2023-07-28T15:42:55;4.80;;;2.53;;
4603;SDS011;2314;48.272;11.562;2023-07-28T15:45:24;5.13;;;2.23;;
4603;SDS011;2314;48.272;11.562;2023-07-28T15:47:51;3.97;;;2.30;;
4603;SDS011;2314;48.272;11.562;2023-07-28T15:50:18;6.83;;;3.23;;
4603;SDS011;2314;48.272;11.562;2023-07-28T15:52:45;5.30;;;3.20;;
4603;SDS011;2314;48.272;11.562;2023-07-28T15:55:13;5.23;;;2.73;;
4603;SDS011;2314;48.272;11.562;2023-07-28T15:57:40;4.10;;;2.53;;
4603;SDS011;2314;48.272;11.562;2023-07-28T16:00:07;5.03;;;2.30;;
4603;SDS011;2314;48.272;11.562;2023-07-28T16:02:39;8.03;;;2.77;;
4603;SDS011;2314;48.272;11.562;2023-07-28T16:05:07;5.63;;;2.77;;
4603;SDS011;2314;48.272;11.562;2023-07-28T16:07:34;4.20;;;2.33;;
4603;SDS011;2314;48.272;11.562;2023-07-28T16:10:02;5.33;;;2.67;;
4603;SDS011;2314;48.272;11.562;2023-07-28T16:12:29;6.20;;;2.63;;
4603;SDS011;2314;48.272;11.562;2023-07-28T16:14:56;3.73;;;2.30;;
4603;SDS011;2314;48.272;11.562;2023-07-28T16:17:23;4.23;;;2.60;;
4603;SDS011;2314;48.272;11.562;2023-07-28T16:19:51;6.07;;;2.97;;
4603;SDS011;2314;48.272;11.562;2023-07-28T16:22:18;4.30;;;2.70;;
4603;SDS011;2314;48.272;11.562;2023-07-28T16:24:45;3.83;;;2.33;;
4603;SDS011;2314;48.272;11.562;2023-07-28T16:27:12;4.43;;;2.63;;
4603;SDS011;2314;48.272;11.562;2023-07-28T16:29:39;3.97;;;2.00;;
4603;SDS011;2314;48.272;11.562;2023-07-28T16:32:07;3.50;;;2.20;;
4603;SDS011;2314;48.272;11.562;2023-07-28T16:34:35;6.97;;;3.00;;
4603;SDS011;2314;48.272;11.562;2023-07-28T16:37:04;5.57;;;2.50;;
4603;SDS011;2314;48.272;11.562;2023-07-28T16:39:31;4.07;;;2.53;;
4603;SDS011;2314;48.272;11.562;2023-07-28T16:41:58;3.80;;;2.33;;
4603;SDS011;2314;48.272;11.562;2023-07-28T16:44:27;4.07;;;2.50;;
4603;SDS011;2314;48.272;11.562;2023-07-28T16:46:54;6.40;;;1.90;;
4603;SDS011;2314;48.272;11.562;2023-07-28T16:49:21;4.10;;;2.50;;
4603;SDS011;2314;48.272;11.562;2023-07-28T16:51:48;4.07;;;1.90;;
4603;SDS011;2314;48.272;11.562;2023-07-28T16:54:17;5.70;;;2.53;;
4603;SDS011;2314;48.272;11.562;2023-07-28T16:56:44;3.90;;;1.97;;
4603;SDS011;2314;48.272;11.562;2023-07-28T16:59:11;3.40;;;1.83;;
4603;SDS011;2314;48.272;11.562;2023-07-28T17:01:38;4.27;;;2.73;;
4603;SDS011;2314;48.272;11.562;2023-07-28T17:04:05;4.80;;;2.60;;
4603;SDS011;2314;48.272;11.562;2023-07-28T17:06:32;3.50;;;2.10;;
4603;SDS011;2314;48.272;11.562;2023-07-28T17:08:59;3.90;;;2.20;;
4603;SDS011;2314;48.272;11.562;2023-07-28T17:11:27;3.87;;;1.90;;
4603;SDS011;2314;48.272;11.562;2023-07-28T17:13:54;4.90;;;2.30;;
4603;SDS011;2314;48.272;11.562;2023-07-28T17:16:21;3.43;;;2.20;;
4603;SDS011;2314;48.272;11.562;2023-07-28T17:18:49;3.90;;;2.30;;
4603;SDS011;2314;48.272;11.562;2023-07-28T17:21:17;3.53;;;2.07;;
4603;SDS011;2314;48.272;11.562;2023-07-28T17:23:44;3.93;;;2.30;;
4603;SDS011;2314;48.272;11.562;2023-07-28T17:26:11;4.27;;;2.40;;
4603;SDS011;2314;48.272;11.562;2023-07-28T17:28:40;5.33;;;2.10;;
4603;SDS011;2314;48.272;11.562;2023-07-28T17:31:06;3.97;;;2.00;;
4603;SDS011;2314;48.272;11.562;2023-07-28T17:33:33;2.47;;;1.53;;
4603;SDS011;2314;48.272;11.562;2023-07-28T17:36:00;3.10;;;1.90;;
4603;SDS011;2314;48.272;11.562;2023-07-28T17:38:28;3.53;;;1.80;;
4603;SDS011;2314;48.272;11.562;2023-07-28T17:40:55;4.17;;;2.40;;
4603;SDS011;2314;48.272;11.562;2023-07-28T17:43:22;4.53;;;2.37;;
4603;SDS011;2314;48.272;11.562;2023-07-28T17:45:51;4.73;;;2.30;;
4603;SDS011;2314;48.272;11.562;2023-07-28T17:48:18;3.83;;;1.93;;
4603;SDS011;2314;48.272;11.562;2023-07-28T17:50:45;4.03;;;2.43;;
4603;SDS011;2314;48.272;11.562;2023-07-28T17:53:12;5.20;;;2.00;;
4603;SDS011;2314;48.272;11.562;2023-07-28T17:55:39;5.17;;;2.40;;
4603;SDS011;2314;48.272;11.562;2023-07-28T17:58:06;4.40;;;2.50;;
4603;SDS011;2314;48.272;11.562;2023-07-28T18:00:33;5.30;;;2.20;;
4603;SDS011;2314;48.272;11.562;2023-07-28T18:03:01;4.00;;;2.10;;
4603;SDS011;2314;48.272;11.562;2023-07-28T18:05:29;3.17;;;1.67;;
4603;SDS011;2314;48.272;11.562;2023-07-28T18:07:56;4.63;;;2.27;;
4603;SDS011;2314;48.272;11.562;2023-07-28T18:10:23;6.03;;;2.60;;
4603;SDS011;2314;48.272;11.562;2023-07-28T18:12:51;4.33;;;1.70;;
4603;SDS011;2314;48.272;11.562;2023-07-28T18:15:18;4.97;;;2.43;;
4603;SDS011;2314;48.272;11.562;2023-07-28T18:17:45;3.80;;;2.23;;
4603;SDS011;2314;48.272;11.562;2023-07-28T18:20:13;3.80;;;2.30;;
4603;SDS011;2314;48.272;11.562;2023-07-28T18:22:40;2.93;;;1.93;;
4603;SDS011;2314;48.272;11.562;2023-07-28T18:25:07;4.40;;;2.53;;
4603;SDS011;2314;48.272;11.562;2023-07-28T18:27:34;7.20;;;2.33;;
4603;SDS011;2314;48.272;11.562;2023-07-28T18:30:01;4.07;;;2.20;;
4603;SDS011;2314;48.272;11.562;2023-07-28T18:32:29;7.50;;;2.83;;
4603;SDS011;2314;48.272;11.562;2023-07-28T18:34:56;5.13;;;2.40;;
